createdAt,value
2019-04-22T00:01:20.566Z,6.37
2019-04-22T00:03:52.722Z,6.73
2019-04-22T00:06:42.461Z,7.23
2019-04-22T00:09:12.524Z,7.33
2019-04-22T00:11:45.664Z,7.10
2019-04-22T00:14:05.607Z,6.90
2019-04-22T00:16:47.254Z,7.00
2019-04-22T00:19:24.331Z,7.17
2019-04-22T00:21:50.218Z,7.27
2019-04-22T00:24:20.422Z,6.67
2019-04-22T00:29:39.269Z,7.53
2019-04-22T00:31:57.523Z,7.57
2019-04-22T00:34:25.471Z,7.63
2019-04-22T00:36:54.840Z,7.50
2019-04-22T00:39:33.709Z,7.57
2019-04-22T00:41:56.485Z,7.37
2019-04-22T00:44:31.822Z,7.10
2019-04-22T00:47:01.808Z,7.17
2019-04-22T00:52:05.176Z,6.53
2019-04-22T00:54:28.203Z,6.70
2019-04-22T00:57:01.261Z,6.77
2019-04-22T00:59:29.783Z,7.07
2019-04-22T01:02:07.504Z,7.00
2019-04-22T01:04:43.760Z,6.90
2019-04-22T01:07:04.075Z,6.87
2019-04-22T01:09:38.939Z,7.67
2019-04-22T01:12:08.720Z,7.07
2019-04-22T01:14:38.276Z,6.80
2019-04-22T01:17:09.298Z,6.73
2019-04-22T01:19:39.025Z,7.03
2019-04-22T01:22:06.432Z,7.60
2019-04-22T01:24:32.315Z,7.37
2019-04-22T01:27:01.915Z,7.00
2019-04-22T01:29:30.882Z,7.47
2019-04-22T01:31:48.845Z,6.97
2019-04-22T01:34:33.538Z,6.73
2019-04-22T01:37:02.934Z,7.07
2019-04-22T01:39:43.931Z,6.80
2019-04-22T01:42:12.076Z,7.03
2019-04-22T01:44:48.192Z,6.87
2019-04-22T01:47:19.640Z,6.73
2019-04-22T01:49:50.661Z,6.50
2019-04-22T01:52:15.434Z,6.80
2019-04-22T01:54:51.530Z,6.07
2019-04-22T01:57:19.149Z,6.93
2019-04-22T01:59:48.799Z,6.67
2019-04-22T02:02:23.576Z,6.87
2019-04-22T02:04:53.192Z,7.30
2019-04-22T02:07:27.992Z,6.63
2019-04-22T02:10:12.329Z,6.63
2019-04-22T02:12:25.792Z,6.57
2019-04-22T02:14:52.358Z,7.17
2019-04-22T02:17:32.807Z,6.70
2019-04-22T02:20:00.527Z,6.83
2019-04-22T02:22:41.628Z,6.50
2019-04-22T02:24:58.656Z,6.60
2019-04-22T02:27:35.219Z,6.40
2019-04-22T02:29:57.962Z,6.70
2019-04-22T02:32:49.567Z,6.87
2019-04-22T02:35:05.739Z,6.83
2019-04-22T02:37:29.671Z,7.33
2019-04-22T02:40:09.261Z,6.33
2019-04-22T02:42:41.320Z,6.83
2019-04-22T02:44:58.100Z,7.33
2019-04-22T02:47:50.342Z,7.90
2019-04-22T02:50:06.474Z,6.90
2019-04-22T02:52:37.469Z,7.37
2019-04-22T02:55:07.288Z,7.53
2019-04-22T03:00:24.273Z,7.40
2019-04-22T03:02:50.608Z,7.60
2019-04-22T03:05:18.791Z,7.73
2019-04-22T03:07:50.647Z,8.03
2019-04-22T03:10:37.962Z,7.33
2019-04-22T03:12:41.887Z,7.50
2019-04-22T03:17:58.395Z,7.27
2019-04-22T03:22:46.833Z,7.07
2019-04-22T03:40:34.647Z,8.10
2019-04-22T03:42:56.039Z,7.20
2019-04-22T03:50:25.270Z,7.30
2019-04-22T03:57:56.023Z,7.30
2019-04-22T04:03:04.957Z,7.70
2019-04-22T04:08:12.074Z,8.00
2019-04-22T04:10:35.362Z,8.07
2019-04-22T04:13:02.756Z,7.63
2019-04-22T04:15:34.312Z,7.77
2019-04-22T04:18:06.857Z,7.87
2019-04-22T04:23:08.352Z,8.17
2019-04-22T04:25:46.727Z,7.80
2019-04-22T04:30:31.256Z,8.13
2019-04-22T04:33:06.894Z,8.10
2019-04-22T04:35:40.480Z,7.53
2019-04-22T04:38:07.919Z,7.67
2019-04-22T04:40:33.230Z,7.93
2019-04-22T04:43:10.027Z,7.93
2019-04-22T04:48:18.447Z,7.83
2019-04-22T04:53:12.499Z,7.50
2019-04-22T04:55:35.166Z,7.77
2019-04-22T04:58:36.707Z,8.33
2019-04-22T05:05:39.623Z,8.30
2019-04-22T05:08:32.959Z,8.20
2019-04-22T05:13:33.632Z,7.43
2019-04-22T05:21:02.908Z,7.50
2019-04-22T05:23:16.241Z,7.17
2019-04-22T05:25:43.206Z,7.97
2019-04-22T05:28:15.113Z,8.43
2019-04-22T05:30:46.046Z,7.70
2019-04-22T05:33:14.247Z,7.60
2019-04-22T05:35:46.462Z,8.10
2019-04-22T05:40:51.509Z,8.70
2019-04-22T05:43:21.625Z,7.83
2019-04-22T05:45:51.360Z,8.33
2019-04-22T05:48:18.792Z,7.83
2019-04-22T05:50:52.563Z,7.90
2019-04-22T05:53:20.094Z,6.90
2019-04-22T05:56:17.126Z,6.97
2019-04-22T05:58:22.522Z,6.93
2019-04-22T06:01:30.741Z,6.33
2019-04-22T06:03:39.459Z,6.37
2019-04-22T06:06:09.225Z,5.57
2019-04-22T06:08:40.183Z,6.07
2019-04-22T06:11:13.165Z,5.97
2019-04-22T06:13:31.940Z,6.23
2019-04-22T06:16:12.718Z,6.40
2019-04-22T06:18:38.418Z,6.20
2019-04-22T06:21:11.397Z,5.97
2019-04-22T06:26:19.442Z,6.37
2019-04-22T06:31:20.964Z,6.27
2019-04-22T06:33:48.116Z,6.73
2019-04-22T06:36:15.583Z,6.80
2019-04-22T06:38:46.278Z,7.07
2019-04-22T06:41:27.263Z,6.20
2019-04-22T06:43:54.407Z,6.80
2019-04-22T06:46:20.426Z,7.20
2019-04-22T06:48:45.762Z,7.60
2019-04-22T06:51:21.347Z,7.67
2019-04-22T06:53:47.792Z,7.67
2019-04-22T06:56:20.196Z,8.17
2019-04-22T06:58:51.492Z,7.83
2019-04-22T07:01:40.462Z,7.93
2019-04-22T07:06:29.877Z,8.00
2019-04-22T07:11:18.972Z,8.37
2019-04-22T07:13:58.920Z,7.93
2019-04-22T07:16:30.009Z,8.00
2019-04-22T07:18:56.868Z,9.00
2019-04-22T07:21:25.976Z,7.80
2019-04-22T07:26:37.329Z,8.17
2019-04-22T07:28:58.260Z,8.23
2019-04-22T07:31:27.247Z,7.97
2019-04-22T07:33:58.205Z,8.93
2019-04-22T07:38:58.660Z,9.17
2019-04-22T07:41:34.614Z,9.27
2019-04-22T07:46:34.962Z,9.40
2019-04-22T07:49:02.373Z,8.87
2019-04-22T07:51:32.843Z,9.77
2019-04-22T07:54:01.312Z,8.47
2019-04-22T07:56:50.735Z,8.63
2019-04-22T07:59:03.707Z,9.20
2019-04-22T08:01:30.525Z,8.20
2019-04-22T08:06:41.574Z,9.20
2019-04-22T08:09:13.902Z,8.73
2019-04-22T08:14:12.498Z,8.73
2019-04-22T08:16:48.508Z,8.80
2019-04-22T08:19:18.221Z,8.63
2019-04-22T08:21:42.615Z,9.17
2019-04-22T08:24:17.952Z,8.30
2019-04-22T08:26:41.805Z,8.60
2019-04-22T08:29:14.818Z,8.50
2019-04-22T08:31:42.028Z,8.97
2019-04-22T08:34:14.163Z,8.63
2019-04-22T08:37:10.293Z,7.73
2019-04-22T08:41:41.501Z,8.33
2019-04-22T08:44:22.207Z,9.67
2019-04-22T08:46:53.939Z,8.43
2019-04-22T08:49:09.919Z,9.37
2019-04-22T08:51:42.862Z,9.03
2019-04-22T08:54:19.971Z,8.30
2019-04-22T08:56:45.962Z,8.20
2019-04-22T08:59:14.986Z,9.00
2019-04-22T09:01:48.980Z,9.03
2019-04-22T09:04:16.618Z,9.10
2019-04-22T09:09:27.243Z,8.80
2019-04-22T09:11:54.769Z,8.07
2019-04-22T09:14:34.750Z,7.47
2019-04-22T09:17:02.253Z,8.63
2019-04-22T09:19:24.062Z,7.90
2019-04-22T09:22:00.590Z,7.60
2019-04-22T09:24:29.523Z,7.73
2019-04-22T09:27:03.756Z,7.70
2019-04-22T09:29:34.090Z,7.80
2019-04-22T09:32:06.889Z,7.77
2019-04-22T09:34:38.265Z,7.70
2019-04-22T09:39:34.213Z,7.10
2019-04-22T09:42:05.257Z,7.47
2019-04-22T09:44:36.180Z,7.73
2019-04-22T09:47:06.183Z,13.90
2019-04-22T09:49:46.812Z,7.87
2019-04-22T09:52:10.190Z,7.10
2019-04-22T09:54:51.010Z,6.53
2019-04-22T09:57:10.880Z,6.67
2019-04-22T09:59:48.512Z,6.93
2019-04-22T10:04:48.208Z,6.37
2019-04-22T10:07:15.272Z,5.80
2019-04-22T10:09:59.431Z,5.77
2019-04-22T10:12:19.235Z,5.60
2019-04-22T10:17:12.325Z,6.03
2019-04-22T10:19:46.811Z,5.83
2019-04-22T10:22:27.621Z,6.10
2019-04-22T10:24:54.472Z,5.67
2019-04-22T10:27:23.953Z,5.93
2019-04-22T10:29:54.133Z,5.93
2019-04-22T10:32:20.622Z,4.70
2019-04-22T10:34:40.916Z,4.80
2019-04-22T10:37:10.879Z,4.30
2019-04-22T10:39:46.089Z,4.23
2019-04-22T10:42:11.189Z,5.50
2019-04-22T10:44:41.367Z,4.30
2019-04-22T10:47:10.145Z,4.40
2019-04-22T10:49:40.377Z,4.20
2019-04-22T10:52:09.184Z,4.17
2019-04-22T10:54:41.358Z,3.93
2019-04-22T10:57:10.864Z,3.77
2019-04-22T10:59:40.712Z,3.30
2019-04-22T11:02:09.869Z,3.50
2019-04-22T11:04:38.775Z,3.70
2019-04-22T11:07:11.085Z,3.90
2019-04-22T11:09:50.741Z,3.73
2019-04-22T11:12:16.428Z,3.23
2019-04-22T11:14:42.741Z,3.10
2019-04-22T11:17:11.408Z,3.53
2019-04-22T11:19:41.542Z,3.40
2019-04-22T11:22:19.995Z,3.20
2019-04-22T11:24:41.194Z,3.40
2019-04-22T11:27:10.754Z,3.90
2019-04-22T11:29:39.763Z,3.80
2019-04-22T11:32:08.611Z,3.53
2019-04-22T11:34:37.675Z,3.80
2019-04-22T11:37:06.398Z,3.43
2019-04-22T11:39:36.686Z,3.37
2019-04-22T11:42:05.744Z,3.40
2019-04-22T11:44:35.450Z,3.10
2019-04-22T11:47:05.323Z,3.00
2019-04-22T11:49:34.218Z,3.23
2019-04-22T11:52:05.528Z,2.90
2019-04-22T11:54:34.677Z,2.60
2019-04-22T11:57:05.311Z,2.90
2019-04-22T11:59:34.535Z,2.70
2019-04-22T12:02:04.642Z,2.70
2019-04-22T12:04:33.959Z,2.90
2019-04-22T12:07:04.244Z,2.77
2019-04-22T12:09:35.315Z,2.93
2019-04-22T12:12:05.769Z,2.70
2019-04-22T12:14:36.125Z,3.03
2019-04-22T12:17:05.694Z,3.50
2019-04-22T12:19:35.295Z,3.37
2019-04-22T12:22:04.865Z,2.47
2019-04-22T12:24:36.360Z,2.80
2019-04-22T12:27:06.387Z,2.73
2019-04-22T12:29:35.665Z,2.53
2019-04-22T12:32:05.330Z,2.60
2019-04-22T12:34:35.389Z,3.13
2019-04-22T12:37:04.626Z,2.70
2019-04-22T12:39:33.785Z,2.73
2019-04-22T12:42:02.799Z,2.57
2019-04-22T12:44:32.763Z,2.77
2019-04-22T12:47:04.363Z,2.80
2019-04-22T12:49:35.652Z,2.93
2019-04-22T12:52:03.377Z,3.00
2019-04-22T12:54:33.051Z,3.00
2019-04-22T12:57:03.992Z,3.27
2019-04-22T12:59:32.798Z,2.80
2019-04-22T13:02:03.038Z,3.00
2019-04-22T13:04:32.315Z,3.00
2019-04-22T13:07:01.846Z,3.10
2019-04-22T13:09:31.621Z,2.93
2019-04-22T13:12:01.274Z,3.07
2019-04-22T13:14:30.608Z,2.90
2019-04-22T13:16:59.820Z,2.63
2019-04-22T13:19:30.253Z,3.00
2019-04-22T13:21:59.025Z,2.63
2019-04-22T13:24:28.122Z,2.73
2019-04-22T13:26:57.378Z,3.00
2019-04-22T13:29:27.592Z,2.50
2019-04-22T13:31:56.603Z,2.60
2019-04-22T13:34:30.374Z,2.60
2019-04-22T13:36:56.734Z,3.27
2019-04-22T13:39:27.154Z,2.87
2019-04-22T13:42:02.090Z,2.50
2019-04-22T13:44:28.100Z,3.20
2019-04-22T13:47:15.707Z,2.73
2019-04-22T13:50:01.201Z,2.40
2019-04-22T13:54:58.694Z,3.90
2019-04-22T13:57:19.969Z,4.20
2019-04-22T13:59:40.341Z,3.93
2019-04-22T14:02:38.272Z,4.27
2019-04-22T14:05:08.666Z,3.67
2019-04-22T14:07:37.321Z,4.23
2019-04-22T14:10:08.548Z,3.80
2019-04-22T14:12:39.026Z,3.90
2019-04-22T14:15:09.871Z,4.40
2019-04-22T14:17:39.085Z,3.87
2019-04-22T14:20:09.042Z,3.73
2019-04-22T14:22:38.832Z,4.27
2019-04-22T14:25:08.037Z,4.17
2019-04-22T14:27:47.523Z,4.03
2019-04-22T14:30:08.453Z,3.80
2019-04-22T14:32:37.997Z,4.13
2019-04-22T14:35:09.204Z,3.70
2019-04-22T14:37:40.185Z,4.80
2019-04-22T14:40:12.322Z,3.30
2019-04-22T14:43:00.522Z,4.03
2019-04-22T14:45:42.601Z,4.17
2019-04-22T14:48:07.212Z,3.70
2019-04-22T14:50:35.489Z,4.50
2019-04-22T14:53:05.392Z,4.00
2019-04-22T14:55:21.471Z,3.90
2019-04-22T14:57:45.014Z,3.90
2019-04-22T15:00:18.171Z,4.00
2019-04-22T15:02:47.946Z,3.90
2019-04-22T15:05:18.577Z,4.30
2019-04-22T15:07:47.728Z,4.10
2019-04-22T15:10:18.156Z,3.80
2019-04-22T15:12:50.251Z,3.70
2019-04-22T15:15:43.393Z,4.20
2019-04-22T15:18:15.610Z,3.80
2019-04-22T15:20:54.031Z,4.47
2019-04-22T15:23:22.468Z,3.90
2019-04-22T15:25:52.861Z,3.90
2019-04-22T15:28:21.892Z,3.83
2019-04-22T15:30:51.199Z,4.27
2019-04-22T15:33:21.302Z,3.70
2019-04-22T15:35:51.531Z,3.73
2019-04-22T15:38:24.025Z,4.13
2019-04-22T15:40:52.503Z,4.17
2019-04-22T15:43:22.755Z,4.00
2019-04-22T15:45:52.858Z,4.03
2019-04-22T15:48:23.124Z,4.07
2019-04-22T15:50:53.015Z,4.13
2019-04-22T15:53:22.281Z,3.80
2019-04-22T15:55:52.474Z,3.80
2019-04-22T15:58:21.848Z,4.27
2019-04-22T16:00:59.987Z,4.50
2019-04-22T16:03:22.778Z,4.23
2019-04-22T16:05:52.200Z,4.10
2019-04-22T16:08:21.488Z,3.90
2019-04-22T16:10:51.716Z,4.10
2019-04-22T16:13:24.893Z,3.93
2019-04-22T16:15:52.204Z,4.47
2019-04-22T16:18:22.481Z,4.77
2019-04-22T16:20:52.452Z,4.27
2019-04-22T16:23:29.539Z,3.73
2019-04-22T16:29:03.360Z,4.20
2019-04-22T16:31:33.630Z,3.90
2019-04-22T16:34:02.968Z,4.00
2019-04-22T16:36:31.781Z,4.13
2019-04-22T16:39:00.610Z,3.90
2019-04-22T16:41:30.648Z,3.93
2019-04-22T16:44:00.819Z,4.30
2019-04-22T16:46:29.774Z,4.10
2019-04-22T16:48:59.016Z,4.13
2019-04-22T16:51:29.868Z,4.00
2019-04-22T16:54:00.007Z,4.30
2019-04-22T16:56:33.157Z,3.90
2019-04-22T16:59:00.968Z,4.53
2019-04-22T17:01:48.497Z,4.03
2019-04-22T17:04:22.954Z,3.70
2019-04-22T17:06:53.325Z,4.37
2019-04-22T17:09:23.680Z,4.40
2019-04-22T17:11:53.991Z,4.33
2019-04-22T17:14:27.264Z,4.03
2019-04-22T17:16:54.664Z,4.20
2019-04-22T17:19:23.660Z,4.60
2019-04-22T17:21:53.476Z,4.50
2019-04-22T17:24:23.647Z,4.33
2019-04-22T17:26:52.677Z,5.00
2019-04-22T17:29:22.806Z,4.47
2019-04-22T17:31:58.408Z,5.20
2019-04-22T17:34:23.343Z,5.00
2019-04-22T17:36:53.240Z,4.53
2019-04-22T17:39:31.690Z,5.30
2019-04-22T17:42:08.216Z,5.37
2019-04-22T17:44:54.290Z,5.40
2019-04-22T17:47:35.910Z,4.87
2019-04-22T17:50:11.743Z,5.27
2019-04-22T17:52:42.024Z,4.90
2019-04-22T17:55:11.290Z,4.93
2019-04-22T17:57:39.165Z,4.83
2019-04-22T18:00:11.401Z,5.00
2019-04-22T18:02:39.659Z,4.70
2019-04-22T18:05:01.482Z,6.93
2019-04-22T18:07:42.975Z,5.43
2019-04-22T18:12:53.478Z,5.23
2019-04-22T18:15:19.507Z,5.77
2019-04-22T18:17:59.264Z,5.43
2019-04-22T18:20:14.348Z,5.83
2019-04-22T18:22:39.668Z,5.70
2019-04-22T18:25:12.977Z,5.90
2019-04-22T18:28:07.412Z,5.60
2019-04-22T18:30:16.637Z,5.90
2019-04-22T18:32:51.355Z,5.53
2019-04-22T18:35:20.556Z,5.40
2019-04-22T18:37:59.199Z,6.73
2019-04-22T18:40:24.314Z,5.97
2019-04-22T18:42:58.799Z,5.73
2019-04-22T18:45:37.615Z,5.60
2019-04-22T18:47:48.853Z,5.77
2019-04-22T18:50:33.774Z,5.60
2019-04-22T18:53:23.427Z,5.87
2019-04-22T18:55:49.048Z,5.93
2019-04-22T18:58:16.610Z,6.23
2019-04-22T19:00:36.344Z,6.60
2019-04-22T19:03:12.982Z,6.23
2019-04-22T19:06:00.947Z,6.13
2019-04-22T19:08:29.249Z,5.53
2019-04-22T19:11:06.949Z,6.50
2019-04-22T19:16:14.326Z,6.27
2019-04-22T19:18:37.957Z,6.43
2019-04-22T19:21:07.995Z,6.70
2019-04-22T19:23:32.036Z,6.73
2019-04-22T19:26:08.107Z,6.17
2019-04-22T19:31:09.270Z,6.30
2019-04-22T19:33:53.848Z,6.30
2019-04-22T19:36:11.062Z,5.83
2019-04-22T19:38:27.650Z,6.30
2019-04-22T19:41:15.040Z,5.90
2019-04-22T19:43:39.026Z,6.03
2019-04-22T19:46:10.227Z,6.57
2019-04-22T19:48:56.579Z,6.50
2019-04-22T19:51:27.982Z,6.23
2019-04-22T19:53:40.478Z,6.07
2019-04-22T19:56:08.237Z,6.43
2019-04-22T19:58:41.165Z,6.23
2019-04-22T20:01:40.125Z,5.90
2019-04-22T20:04:28.207Z,6.43
2019-04-22T20:07:16.477Z,6.27
2019-04-22T20:09:55.606Z,6.10
2019-04-22T20:12:16.495Z,6.40
2019-04-22T20:14:49.508Z,6.27
2019-04-22T20:17:26.806Z,6.40
2019-04-22T20:19:55.954Z,6.00
2019-04-22T20:22:23.346Z,5.83
2019-04-22T20:24:44.880Z,6.57
2019-04-22T20:27:26.164Z,7.00
2019-04-22T20:30:13.361Z,6.27
2019-04-22T20:32:23.507Z,6.20
2019-04-22T20:35:01.084Z,6.53
2019-04-22T20:39:53.077Z,7.43
2019-04-22T20:42:38.211Z,6.03
2019-04-22T20:44:57.384Z,6.20
2019-04-22T20:47:22.014Z,6.03
2019-04-22T20:49:58.953Z,6.10
2019-04-22T20:52:36.246Z,6.27
2019-04-22T20:54:54.410Z,6.37
2019-04-22T20:57:34.817Z,5.97
2019-04-22T20:59:55.603Z,6.23
2019-04-22T21:02:25.189Z,6.00
2019-04-22T21:04:53.951Z,5.90
2019-04-22T21:07:26.773Z,5.70
2019-04-22T21:10:04.306Z,6.00
2019-04-22T21:12:27.329Z,5.93
2019-04-22T21:15:06.775Z,5.90
2019-04-22T21:17:34.731Z,5.73
2019-04-22T21:20:14.024Z,5.97
2019-04-22T21:22:38.917Z,5.77
2019-04-22T21:25:02.377Z,6.00
2019-04-22T21:27:45.102Z,5.80
2019-04-22T21:30:03.398Z,5.80
2019-04-22T21:32:38.545Z,6.00
2019-04-22T21:35:17.878Z,5.80
2019-04-22T21:37:43.236Z,6.03
2019-04-22T21:40:08.318Z,5.63
2019-04-22T21:42:50.186Z,5.93
2019-04-22T21:45:09.273Z,5.83
2019-04-22T21:47:55.735Z,6.30
2019-04-22T21:52:51.432Z,5.97
2019-04-22T21:55:16.110Z,5.90
2019-04-22T21:58:16.124Z,6.40
2019-04-22T22:00:55.735Z,5.77
2019-04-22T22:03:13.003Z,5.37
2019-04-22T22:05:34.295Z,5.83
2019-04-22T22:08:21.582Z,5.90
2019-04-22T22:10:49.208Z,6.03
2019-04-22T22:13:13.839Z,6.20
2019-04-22T22:15:42.221Z,6.47
2019-04-22T22:18:12.254Z,6.53
2019-04-22T22:21:00.985Z,6.33
2019-04-22T22:25:43.625Z,6.20
2019-04-22T22:28:36.133Z,6.30
2019-04-22T22:31:05.018Z,5.87
2019-04-22T22:33:17.056Z,6.43
2019-04-22T22:35:45.669Z,6.03
2019-04-22T22:38:19.191Z,6.37
2019-04-22T22:40:32.810Z,6.13
2019-04-22T22:43:11.804Z,6.10
2019-04-22T22:45:39.342Z,6.30
2019-04-22T22:48:25.293Z,6.67
2019-04-22T22:50:50.911Z,6.03
2019-04-22T22:55:52.090Z,6.27
2019-04-22T22:58:27.730Z,6.40
2019-04-22T23:00:50.589Z,6.30
2019-04-22T23:05:57.627Z,6.20
2019-04-22T23:08:47.394Z,6.27
2019-04-22T23:13:34.227Z,6.40
2019-04-22T23:15:54.514Z,5.80
2019-04-22T23:18:10.081Z,6.80
2019-04-22T23:20:44.042Z,6.63
2019-04-22T23:23:27.696Z,6.70
2019-04-22T23:26:03.857Z,6.93
2019-04-22T23:28:43.585Z,6.70
2019-04-22T23:31:25.058Z,7.27
2019-04-22T23:34:01.027Z,7.27
2019-04-22T23:37:03.240Z,6.87
2019-04-22T23:39:42.031Z,6.87
2019-04-22T23:42:15.909Z,6.90
2019-04-22T23:44:39.840Z,7.37
2019-04-22T23:47:23.925Z,6.70
2019-04-22T23:50:01.114Z,7.27
2019-04-22T23:52:35.754Z,7.60
2019-04-22T23:55:11.660Z,7.47
2019-04-22T23:57:55.734Z,7.10
